sensor_id;sensor_type;location;lat;lon;timestamp;temperature;humidity
8313;DHT22;4194;43.408;24.626;2023-12-07T11:18:44;5.70;99.90
8313;DHT22;4194;43.408;24.626;2023-12-07T11:21:10;4.30;99.90
8313;DHT22;4194;43.408;24.626;2023-12-07T11:23:36;4.60;99.90
8313;DHT22;4194;43.408;24.626;2023-12-07T11:26:02;4.30;99.90
8313;DHT22;4194;43.408;24.626;2023-12-07T11:28:38;4.40;99.90
8313;DHT22;4194;43.408;24.626;2023-12-07T11:31:08;4.00;99.90
8313;DHT22;4194;43.408;24.626;2023-12-07T11:33:33;4.00;99.90
8313;DHT22;4194;43.408;24.626;2023-12-07T11:38:28;3.40;99.90
8313;DHT22;4194;43.408;24.626;2023-12-07T11:40:54;3.80;99.90
8313;DHT22;4194;43.408;24.626;2023-12-07T11:45:59;4.30;99.90
8313;DHT22;4194;43.408;24.626;2023-12-07T11:48:25;3.70;99.90
8313;DHT22;4194;43.408;24.626;2023-12-07T11:51:02;3.70;99.90
8313;DHT22;4194;43.408;24.626;2023-12-07T11:53:33;3.80;99.90
8313;DHT22;4194;43.408;24.626;2023-12-07T11:56:04;4.10;99.90
8313;DHT22;4194;43.408;24.626;2023-12-07T11:58:31;4.30;99.90
8313;DHT22;4194;43.408;24.626;2023-12-07T12:00:57;3.80;99.90
8313;DHT22;4194;43.408;24.626;2023-12-07T12:03:27;3.20;99.90
8313;DHT22;4194;43.408;24.626;2023-12-07T12:05:54;3.60;99.90
8313;DHT22;4194;43.408;24.626;2023-12-07T12:08:20;3.60;99.90
8313;DHT22;4194;43.408;24.626;2023-12-07T12:10:47;3.60;99.90
8313;DHT22;4194;43.408;24.626;2023-12-07T12:13:15;3.60;99.90
8313;DHT22;4194;43.408;24.626;2023-12-07T12:15:41;3.60;99.90
8313;DHT22;4194;43.408;24.626;2023-12-07T12:18:07;3.80;99.90
8313;DHT22;4194;43.408;24.626;2023-12-07T12:20:33;3.50;99.90
8313;DHT22;4194;43.408;24.626;2023-12-07T12:22:59;3.50;99.90
8313;DHT22;4194;43.408;24.626;2023-12-07T12:25:29;3.20;99.90
8313;DHT22;4194;43.408;24.626;2023-12-07T12:28:02;3.00;99.90
8313;DHT22;4194;43.408;24.626;2023-12-07T12:30:29;3.50;99.90
8313;DHT22;4194;43.408;24.626;2023-12-07T12:32:55;3.50;99.90
8313;DHT22;4194;43.408;24.626;2023-12-07T12:35:21;3.80;99.90
8313;DHT22;4194;43.408;24.626;2023-12-07T12:37:48;2.90;99.90
8313;DHT22;4194;43.408;24.626;2023-12-07T12:40:22;3.60;99.90
8313;DHT22;4194;43.408;24.626;2023-12-07T12:42:50;3.40;99.90
8313;DHT22;4194;43.408;24.626;2023-12-07T12:45:16;4.00;99.90
8313;DHT22;4194;43.408;24.626;2023-12-07T12:47:44;3.60;99.90
8313;DHT22;4194;43.408;24.626;2023-12-07T12:50:11;3.70;99.90
8313;DHT22;4194;43.408;24.626;2023-12-07T12:52:39;3.20;99.90
8313;DHT22;4194;43.408;24.626;2023-12-07T12:55:11;3.90;99.90
8313;DHT22;4194;43.408;24.626;2023-12-07T12:57:38;3.00;99.90
8313;DHT22;4194;43.408;24.626;2023-12-07T13:00:04;3.90;99.90
8313;DHT22;4194;43.408;24.626;2023-12-07T13:02:33;3.30;99.90
8313;DHT22;4194;43.408;24.626;2023-12-07T13:04:58;3.70;99.90
8313;DHT22;4194;43.408;24.626;2023-12-07T13:07:24;3.30;99.90
8313;DHT22;4194;43.408;24.626;2023-12-07T13:09:50;3.60;99.90
8313;DHT22;4194;43.408;24.626;2023-12-07T13:12:16;3.40;99.90
8313;DHT22;4194;43.408;24.626;2023-12-07T13:14:42;3.30;99.90
8313;DHT22;4194;43.408;24.626;2023-12-07T13:17:07;3.50;99.90
8313;DHT22;4194;43.408;24.626;2023-12-07T13:19:33;3.70;99.90
8313;DHT22;4194;43.408;24.626;2023-12-07T13:22:00;3.60;99.90
8313;DHT22;4194;43.408;24.626;2023-12-07T13:24:26;3.70;99.90
8313;DHT22;4194;43.408;24.626;2023-12-07T13:26:52;3.70;99.90
8313;DHT22;4194;43.408;24.626;2023-12-07T13:29:17;3.70;99.90
8313;DHT22;4194;43.408;24.626;2023-12-07T13:31:43;3.90;99.90
8313;DHT22;4194;43.408;24.626;2023-12-07T13:34:09;3.70;99.90
8313;DHT22;4194;43.408;24.626;2023-12-07T13:36:34;3.50;99.90
8313;DHT22;4194;43.408;24.626;2023-12-07T13:39:01;3.50;99.90
8313;DHT22;4194;43.408;24.626;2023-12-07T13:41:30;3.50;99.90
8313;DHT22;4194;43.408;24.626;2023-12-07T13:43:55;2.90;99.90
8313;DHT22;4194;43.408;24.626;2023-12-07T13:46:21;3.00;99.90
8313;DHT22;4194;43.408;24.626;2023-12-07T13:48:47;3.40;99.90
8313;DHT22;4194;43.408;24.626;2023-12-07T13:51:13;3.40;99.90
8313;DHT22;4194;43.408;24.626;2023-12-07T13:53:39;3.50;99.90
8313;DHT22;4194;43.408;24.626;2023-12-07T13:56:05;3.90;99.90
8313;DHT22;4194;43.408;24.626;2023-12-07T13:58:32;3.30;99.90
8313;DHT22;4194;43.408;24.626;2023-12-07T14:00:57;3.80;99.90
8313;DHT22;4194;43.408;24.626;2023-12-07T14:03:23;3.30;99.90
8313;DHT22;4194;43.408;24.626;2023-12-07T14:05:49;3.70;99.90
8313;DHT22;4194;43.408;24.626;2023-12-07T14:08:15;3.20;99.90
8313;DHT22;4194;43.408;24.626;2023-12-07T14:10:40;3.20;99.90
8313;DHT22;4194;43.408;24.626;2023-12-07T14:13:06;3.70;99.90
8313;DHT22;4194;43.408;24.626;2023-12-07T14:15:33;2.90;99.90
8313;DHT22;4194;43.408;24.626;2023-12-07T14:18:00;3.10;99.90
8313;DHT22;4194;43.408;24.626;2023-12-07T14:20:26;3.00;99.90
8313;DHT22;4194;43.408;24.626;2023-12-07T14:22:54;3.20;99.90
8313;DHT22;4194;43.408;24.626;2023-12-07T14:25:20;3.10;99.90
8313;DHT22;4194;43.408;24.626;2023-12-07T14:27:46;2.90;99.90
8313;DHT22;4194;43.408;24.626;2023-12-07T14:30:12;3.30;99.90
8313;DHT22;4194;43.408;24.626;2023-12-07T14:32:38;3.10;99.90
8313;DHT22;4194;43.408;24.626;2023-12-07T14:35:06;3.60;99.90
8313;DHT22;4194;43.408;24.626;2023-12-07T14:37:32;3.60;99.90
8313;DHT22;4194;43.408;24.626;2023-12-07T14:39:58;3.70;99.90
8313;DHT22;4194;43.408;24.626;2023-12-07T14:42:24;3.10;99.90
8313;DHT22;4194;43.408;24.626;2023-12-07T14:44:49;3.70;99.90
8313;DHT22;4194;43.408;24.626;2023-12-07T14:47:15;2.90;99.90
8313;DHT22;4194;43.408;24.626;2023-12-07T14:49:41;3.10;99.90
8313;DHT22;4194;43.408;24.626;2023-12-07T14:52:07;2.50;99.90
8313;DHT22;4194;43.408;24.626;2023-12-07T14:54:35;3.00;99.90
8313;DHT22;4194;43.408;24.626;2023-12-07T14:57:01;2.90;99.90
8313;DHT22;4194;43.408;24.626;2023-12-07T14:59:28;3.00;99.90
8313;DHT22;4194;43.408;24.626;2023-12-07T15:01:54;2.90;99.90
8313;DHT22;4194;43.408;24.626;2023-12-07T15:04:20;2.90;99.90
8313;DHT22;4194;43.408;24.626;2023-12-07T15:06:46;4.80;99.90
8313;DHT22;4194;43.408;24.626;2023-12-07T15:09:11;2.80;99.90
8313;DHT22;4194;43.408;24.626;2023-12-07T15:11:39;2.80;99.90
8313;DHT22;4194;43.408;24.626;2023-12-07T15:14:05;2.80;99.90
8313;DHT22;4194;43.408;24.626;2023-12-07T15:16:31;2.80;99.90
8313;DHT22;4194;43.408;24.626;2023-12-07T15:18:58;2.80;99.90
8313;DHT22;4194;43.408;24.626;2023-12-07T15:21:23;2.80;99.90
8313;DHT22;4194;43.408;24.626;2023-12-07T15:23:50;3.30;99.90
8313;DHT22;4194;43.408;24.626;2023-12-07T15:26:16;2.70;99.90
8313;DHT22;4194;43.408;24.626;2023-12-07T15:28:42;2.70;99.90
8313;DHT22;4194;43.408;24.626;2023-12-07T15:31:08;2.70;99.90
8313;DHT22;4194;43.408;24.626;2023-12-07T15:33:34;2.70;99.90
8313;DHT22;4194;43.408;24.626;2023-12-07T15:36:01;2.70;99.90
8313;DHT22;4194;43.408;24.626;2023-12-07T15:38:28;2.60;99.90
8313;DHT22;4194;43.408;24.626;2023-12-07T15:40:54;2.70;99.90
8313;DHT22;4194;43.408;24.626;2023-12-07T15:43:25;2.70;99.90
8313;DHT22;4194;43.408;24.626;2023-12-07T15:45:51;2.70;99.90
8313;DHT22;4194;43.408;24.626;2023-12-07T15:48:17;2.70;99.90
8313;DHT22;4194;43.408;24.626;2023-12-07T15:50:48;2.80;99.90
8313;DHT22;4194;43.408;24.626;2023-12-07T15:53:14;2.80;99.90
8313;DHT22;4194;43.408;24.626;2023-12-07T15:55:40;3.40;99.90
8313;DHT22;4194;43.408;24.626;2023-12-07T15:58:06;2.80;99.90
8313;DHT22;4194;43.408;24.626;2023-12-07T16:00:33;2.80;99.90
8313;DHT22;4194;43.408;24.626;2023-12-07T16:02:59;2.80;99.90
8313;DHT22;4194;43.408;24.626;2023-12-07T16:05:25;3.40;99.90
8313;DHT22;4194;43.408;24.626;2023-12-07T16:07:51;3.00;99.90
8313;DHT22;4194;43.408;24.626;2023-12-07T16:10:17;2.80;99.90
8313;DHT22;4194;43.408;24.626;2023-12-07T16:12:43;2.90;99.90
8313;DHT22;4194;43.408;24.626;2023-12-07T16:15:10;2.90;99.90
8313;DHT22;4194;43.408;24.626;2023-12-07T16:17:35;2.50;99.90
8313;DHT22;4194;43.408;24.626;2023-12-07T16:20:01;2.40;99.90
8313;DHT22;4194;43.408;24.626;2023-12-07T16:22:27;2.80;99.90
8313;DHT22;4194;43.408;24.626;2023-12-07T16:24:52;2.40;99.90
8313;DHT22;4194;43.408;24.626;2023-12-07T16:27:18;2.80;99.90
8313;DHT22;4194;43.408;24.626;2023-12-07T16:29:44;2.80;99.90
8313;DHT22;4194;43.408;24.626;2023-12-07T16:32:10;2.80;99.90
8313;DHT22;4194;43.408;24.626;2023-12-07T16:34:36;2.90;99.90
8313;DHT22;4194;43.408;24.626;2023-12-07T16:37:02;2.90;99.90
8313;DHT22;4194;43.408;24.626;2023-12-07T16:39:29;2.90;99.90
8313;DHT22;4194;43.408;24.626;2023-12-07T16:41:55;2.90;99.90
8313;DHT22;4194;43.408;24.626;2023-12-07T16:44:20;2.40;99.90
8313;DHT22;4194;43.408;24.626;2023-12-07T16:46:46;2.90;99.90
8313;DHT22;4194;43.408;24.626;2023-12-07T16:49:12;2.80;99.90
8313;DHT22;4194;43.408;24.626;2023-12-07T16:51:39;2.80;99.90
8313;DHT22;4194;43.408;24.626;2023-12-07T16:54:05;2.40;99.90
8313;DHT22;4194;43.408;24.626;2023-12-07T16:56:31;2.80;99.90
8313;DHT22;4194;43.408;24.626;2023-12-07T16:58:56;2.80;99.90
8313;DHT22;4194;43.408;24.626;2023-12-07T17:01:22;2.70;99.90
8313;DHT22;4194;43.408;24.626;2023-12-07T17:03:49;2.80;99.90
8313;DHT22;4194;43.408;24.626;2023-12-07T17:06:17;2.80;99.90
8313;DHT22;4194;43.408;24.626;2023-12-07T17:08:44;2.30;99.90
8313;DHT22;4194;43.408;24.626;2023-12-07T17:11:11;2.80;99.90
8313;DHT22;4194;43.408;24.626;2023-12-07T17:13:36;2.80;99.90
8313;DHT22;4194;43.408;24.626;2023-12-07T17:16:03;2.90;99.90
8313;DHT22;4194;43.408;24.626;2023-12-07T17:18:29;2.70;99.90
8313;DHT22;4194;43.408;24.626;2023-12-07T17:20:54;2.90;99.90
8313;DHT22;4194;43.408;24.626;2023-12-07T17:23:20;2.90;99.90
8313;DHT22;4194;43.408;24.626;2023-12-07T17:25:46;2.90;99.90
8313;DHT22;4194;43.408;24.626;2023-12-07T17:28:11;2.90;99.90
8313;DHT22;4194;43.408;24.626;2023-12-07T17:30:37;2.90;99.90
8313;DHT22;4194;43.408;24.626;2023-12-07T17:33:03;2.70;99.90
8313;DHT22;4194;43.408;24.626;2023-12-07T17:35:28;3.00;99.90
8313;DHT22;4194;43.408;24.626;2023-12-07T17:37:54;3.00;99.90
8313;DHT22;4194;43.408;24.626;2023-12-07T17:40:20;3.00;99.90
8313;DHT22;4194;43.408;24.626;2023-12-07T17:42:46;2.90;99.90
8313;DHT22;4194;43.408;24.626;2023-12-07T17:45:12;3.00;99.90
8313;DHT22;4194;43.408;24.626;2023-12-07T17:47:37;3.10;99.90
8313;DHT22;4194;43.408;24.626;2023-12-07T17:50:05;2.90;99.90
8313;DHT22;4194;43.408;24.626;2023-12-07T17:52:32;2.40;99.90
8313;DHT22;4194;43.408;24.626;2023-12-07T17:54:58;2.90;99.90
8313;DHT22;4194;43.408;24.626;2023-12-07T17:57:24;2.90;99.90
8313;DHT22;4194;43.408;24.626;2023-12-07T17:59:50;3.00;99.90
8313;DHT22;4194;43.408;24.626;2023-12-07T18:02:15;3.60;99.90
8313;DHT22;4194;43.408;24.626;2023-12-07T18:04:41;2.70;99.90
8313;DHT22;4194;43.408;24.626;2023-12-07T18:07:07;3.40;99.90
8313;DHT22;4194;43.408;24.626;2023-12-07T18:09:32;3.00;99.90
8313;DHT22;4194;43.408;24.626;2023-12-07T18:11:58;2.90;99.90
8313;DHT22;4194;43.408;24.626;2023-12-07T18:14:31;3.50;99.90
8313;DHT22;4194;43.408;24.626;2023-12-07T18:16:56;2.90;99.90
8313;DHT22;4194;43.408;24.626;2023-12-07T18:19:22;2.80;99.90
8313;DHT22;4194;43.408;24.626;2023-12-07T18:21:48;2.80;99.90
8313;DHT22;4194;43.408;24.626;2023-12-07T18:24:13;2.80;99.90
8313;DHT22;4194;43.408;24.626;2023-12-07T18:26:39;2.80;99.90
8313;DHT22;4194;43.408;24.626;2023-12-07T18:29:05;2.80;99.90
8313;DHT22;4194;43.408;24.626;2023-12-07T18:31:32;2.80;99.90
8313;DHT22;4194;43.408;24.626;2023-12-07T18:33:58;2.50;99.90
8313;DHT22;4194;43.408;24.626;2023-12-07T18:36:24;2.80;99.90
8313;DHT22;4194;43.408;24.626;2023-12-07T18:38:49;2.80;99.90
8313;DHT22;4194;43.408;24.626;2023-12-07T18:41:15;2.80;99.90
8313;DHT22;4194;43.408;24.626;2023-12-07T18:43:41;3.10;99.90
8313;DHT22;4194;43.408;24.626;2023-12-07T18:46:07;2.70;99.90
8313;DHT22;4194;43.408;24.626;2023-12-07T18:48:33;2.70;99.90
8313;DHT22;4194;43.408;24.626;2023-12-07T18:50:59;3.40;99.90
8313;DHT22;4194;43.408;24.626;2023-12-07T18:53:26;2.70;99.90
8313;DHT22;4194;43.408;24.626;2023-12-07T18:55:53;2.70;99.90
8313;DHT22;4194;43.408;24.626;2023-12-07T18:58:19;2.70;99.90
8313;DHT22;4194;43.408;24.626;2023-12-07T19:00:48;2.70;99.90
8313;DHT22;4194;43.408;24.626;2023-12-07T19:03:13;2.60;99.90
8313;DHT22;4194;43.408;24.626;2023-12-07T19:05:39;2.80;99.90
8313;DHT22;4194;43.408;24.626;2023-12-07T19:08:06;2.80;99.90
8313;DHT22;4194;43.408;24.626;2023-12-07T19:10:34;2.80;99.90
8313;DHT22;4194;43.408;24.626;2023-12-07T19:13:00;2.80;99.90
8313;DHT22;4194;43.408;24.626;2023-12-07T19:15:26;2.80;99.90
8313;DHT22;4194;43.408;24.626;2023-12-07T19:17:52;3.50;99.90
8313;DHT22;4194;43.408;24.626;2023-12-07T19:20:17;2.80;99.90
8313;DHT22;4194;43.408;24.626;2023-12-07T19:22:43;2.80;99.90
8313;DHT22;4194;43.408;24.626;2023-12-07T19:25:09;2.70;99.90
8313;DHT22;4194;43.408;24.626;2023-12-07T19:27:34;2.70;99.90
8313;DHT22;4194;43.408;24.626;2023-12-07T19:30:00;3.20;99.90
8313;DHT22;4194;43.408;24.626;2023-12-07T19:32:27;2.70;99.90
8313;DHT22;4194;43.408;24.626;2023-12-07T19:34:53;2.60;99.90
8313;DHT22;4194;43.408;24.626;2023-12-07T19:37:18;2.60;99.90
8313;DHT22;4194;43.408;24.626;2023-12-07T19:39:44;2.30;99.90
8313;DHT22;4194;43.408;24.626;2023-12-07T19:42:10;2.50;99.90
8313;DHT22;4194;43.408;24.626;2023-12-07T19:44:35;2.50;99.90
8313;DHT22;4194;43.408;24.626;2023-12-07T19:47:01;2.50;99.90
8313;DHT22;4194;43.408;24.626;2023-12-07T19:49:28;2.50;99.90
8313;DHT22;4194;43.408;24.626;2023-12-07T19:51:54;2.40;99.90
8313;DHT22;4194;43.408;24.626;2023-12-07T19:54:19;2.50;99.90
8313;DHT22;4194;43.408;24.626;2023-12-07T19:56:49;2.40;99.90
8313;DHT22;4194;43.408;24.626;2023-12-07T19:59:15;2.30;99.90
8313;DHT22;4194;43.408;24.626;2023-12-07T20:01:41;2.30;99.90
8313;DHT22;4194;43.408;24.626;2023-12-07T20:04:07;2.30;99.90
8313;DHT22;4194;43.408;24.626;2023-12-07T20:06:32;2.20;99.90
8313;DHT22;4194;43.408;24.626;2023-12-07T20:08:58;2.50;99.90
8313;DHT22;4194;43.408;24.626;2023-12-07T20:11:24;2.30;99.90
8313;DHT22;4194;43.408;24.626;2023-12-07T20:13:49;2.40;99.90
8313;DHT22;4194;43.408;24.626;2023-12-07T20:16:19;2.20;99.90
8313;DHT22;4194;43.408;24.626;2023-12-07T20:18:45;2.30;99.90
8313;DHT22;4194;43.408;24.626;2023-12-07T20:21:12;2.30;99.90
8313;DHT22;4194;43.408;24.626;2023-12-07T20:23:38;2.40;99.90
8313;DHT22;4194;43.408;24.626;2023-12-07T20:26:08;2.60;99.90
8313;DHT22;4194;43.408;24.626;2023-12-07T20:28:34;2.30;99.90
8313;DHT22;4194;43.408;24.626;2023-12-07T20:30:59;2.30;99.90
8313;DHT22;4194;43.408;24.626;2023-12-07T20:33:26;2.60;99.90
8313;DHT22;4194;43.408;24.626;2023-12-07T20:35:51;2.20;99.90
8313;DHT22;4194;43.408;24.626;2023-12-07T20:38:17;2.60;99.90
8313;DHT22;4194;43.408;24.626;2023-12-07T20:40:43;2.20;99.90
8313;DHT22;4194;43.408;24.626;2023-12-07T20:43:09;2.20;99.90
8313;DHT22;4194;43.408;24.626;2023-12-07T20:45:35;2.20;99.90
8313;DHT22;4194;43.408;24.626;2023-12-07T20:48:01;2.50;99.90
8313;DHT22;4194;43.408;24.626;2023-12-07T20:50:26;2.10;99.90
8313;DHT22;4194;43.408;24.626;2023-12-07T20:52:52;1.50;99.90
8313;DHT22;4194;43.408;24.626;2023-12-07T20:55:18;2.00;99.90
8313;DHT22;4194;43.408;24.626;2023-12-07T20:57:46;2.50;99.90
8313;DHT22;4194;43.408;24.626;2023-12-07T21:00:14;2.40;99.90
8313;DHT22;4194;43.408;24.626;2023-12-07T21:02:40;2.10;99.90
8313;DHT22;4194;43.408;24.626;2023-12-07T21:05:06;2.40;99.90
8313;DHT22;4194;43.408;24.626;2023-12-07T21:07:32;2.30;99.90
8313;DHT22;4194;43.408;24.626;2023-12-07T21:09:57;1.90;99.90
8313;DHT22;4194;43.408;24.626;2023-12-07T21:12:23;2.30;99.90
8313;DHT22;4194;43.408;24.626;2023-12-07T21:14:49;2.50;99.90
8313;DHT22;4194;43.408;24.626;2023-12-07T21:17:14;2.00;99.90
8313;DHT22;4194;43.408;24.626;2023-12-07T21:19:44;1.90;99.90
8313;DHT22;4194;43.408;24.626;2023-12-07T21:22:11;2.30;99.90
8313;DHT22;4194;43.408;24.626;2023-12-07T21:24:37;2.50;99.90
8313;DHT22;4194;43.408;24.626;2023-12-07T21:27:02;2.00;99.90
8313;DHT22;4194;43.408;24.626;2023-12-07T21:29:28;2.00;99.90
8313;DHT22;4194;43.408;24.626;2023-12-07T21:31:54;2.10;99.90
8313;DHT22;4194;43.408;24.626;2023-12-07T21:34:20;2.00;99.90
8313;DHT22;4194;43.408;24.626;2023-12-07T21:36:45;1.90;99.90
8313;DHT22;4194;43.408;24.626;2023-12-07T21:39:11;1.90;99.90
8313;DHT22;4194;43.408;24.626;2023-12-07T21:41:37;1.50;99.90
8313;DHT22;4194;43.408;24.626;2023-12-07T21:44:03;2.30;99.90
8313;DHT22;4194;43.408;24.626;2023-12-07T21:46:29;2.00;99.90
8313;DHT22;4194;43.408;24.626;2023-12-07T21:48:55;2.10;99.90
8313;DHT22;4194;43.408;24.626;2023-12-07T21:51:21;2.00;99.90
8313;DHT22;4194;43.408;24.626;2023-12-07T21:53:46;2.00;99.90
8313;DHT22;4194;43.408;24.626;2023-12-07T21:56:12;2.00;99.90
8313;DHT22;4194;43.408;24.626;2023-12-07T21:58:38;2.10;99.90
8313;DHT22;4194;43.408;24.626;2023-12-07T22:01:04;2.00;99.90
8313;DHT22;4194;43.408;24.626;2023-12-07T22:03:30;2.40;99.90
8313;DHT22;4194;43.408;24.626;2023-12-07T22:05:55;1.90;99.90
8313;DHT22;4194;43.408;24.626;2023-12-07T22:08:21;2.00;99.90
8313;DHT22;4194;43.408;24.626;2023-12-07T22:10:47;2.20;99.90
8313;DHT22;4194;43.408;24.626;2023-12-07T22:13:12;1.90;99.90
8313;DHT22;4194;43.408;24.626;2023-12-07T22:15:38;2.00;99.90
8313;DHT22;4194;43.408;24.626;2023-12-07T22:18:04;2.10;99.90
8313;DHT22;4194;43.408;24.626;2023-12-07T22:20:30;2.10;99.90
8313;DHT22;4194;43.408;24.626;2023-12-07T22:22:56;2.50;99.90
8313;DHT22;4194;43.408;24.626;2023-12-07T22:25:21;2.10;99.90
8313;DHT22;4194;43.408;24.626;2023-12-07T22:27:48;1.90;99.90
8313;DHT22;4194;43.408;24.626;2023-12-07T22:30:14;2.10;99.90
8313;DHT22;4194;43.408;24.626;2023-12-07T22:32:44;2.00;99.90
8313;DHT22;4194;43.408;24.626;2023-12-07T22:35:10;2.00;99.90
8313;DHT22;4194;43.408;24.626;2023-12-07T22:37:36;2.50;99.90
8313;DHT22;4194;43.408;24.626;2023-12-07T22:40:02;2.20;99.90
8313;DHT22;4194;43.408;24.626;2023-12-07T22:42:28;2.30;99.90
8313;DHT22;4194;43.408;24.626;2023-12-07T22:44:53;2.10;99.90
8313;DHT22;4194;43.408;24.626;2023-12-07T22:47:19;2.30;99.90
8313;DHT22;4194;43.408;24.626;2023-12-07T22:49:45;2.00;99.90
8313;DHT22;4194;43.408;24.626;2023-12-07T22:52:10;1.90;99.90
8313;DHT22;4194;43.408;24.626;2023-12-07T22:54:36;2.00;99.90
8313;DHT22;4194;43.408;24.626;2023-12-07T22:57:02;2.00;99.90
8313;DHT22;4194;43.408;24.626;2023-12-07T22:59:29;2.10;99.90
8313;DHT22;4194;43.408;24.626;2023-12-07T23:01:55;1.70;99.90
8313;DHT22;4194;43.408;24.626;2023-12-07T23:04:21;2.30;99.90
8313;DHT22;4194;43.408;24.626;2023-12-07T23:06:48;1.90;99.90
8313;DHT22;4194;43.408;24.626;2023-12-07T23:09:14;2.10;99.90
8313;DHT22;4194;43.408;24.626;2023-12-07T23:11:39;2.00;99.90
8313;DHT22;4194;43.408;24.626;2023-12-07T23:14:05;1.90;99.90
8313;DHT22;4194;43.408;24.626;2023-12-07T23:16:30;1.90;99.90
8313;DHT22;4194;43.408;24.626;2023-12-07T23:18:57;2.30;99.90
8313;DHT22;4194;43.408;24.626;2023-12-07T23:21:23;1.70;99.90
8313;DHT22;4194;43.408;24.626;2023-12-07T23:23:48;2.50;99.90
8313;DHT22;4194;43.408;24.626;2023-12-07T23:26:14;2.00;99.90
8313;DHT22;4194;43.408;24.626;2023-12-07T23:28:41;2.00;99.90
8313;DHT22;4194;43.408;24.626;2023-12-07T23:31:07;1.90;99.90
8313;DHT22;4194;43.408;24.626;2023-12-07T23:33:32;2.00;99.90
8313;DHT22;4194;43.408;24.626;2023-12-07T23:35:58;2.00;99.90
8313;DHT22;4194;43.408;24.626;2023-12-07T23:38:24;1.90;99.90
8313;DHT22;4194;43.408;24.626;2023-12-07T23:40:50;0.30;99.90
8313;DHT22;4194;43.408;24.626;2023-12-07T23:43:16;1.90;99.90
8313;DHT22;4194;43.408;24.626;2023-12-07T23:45:41;2.40;99.90
8313;DHT22;4194;43.408;24.626;2023-12-07T23:48:07;1.80;99.90
8313;DHT22;4194;43.408;24.626;2023-12-07T23:50:33;2.40;99.90
8313;DHT22;4194;43.408;24.626;2023-12-07T23:52:59;2.20;99.90
8313;DHT22;4194;43.408;24.626;2023-12-07T23:55:24;1.70;99.90
8313;DHT22;4194;43.408;24.626;2023-12-07T23:57:51;2.00;99.90
